Time;durP1;ratioP1;P1;durP2;ratioP2;P2;SDS_P1;SDS_P2;PMS_P1;PMS_P2;Temp;Humidity;BMP_temperature;BMP_pressure;BME280_temperature;BME280_humidity;BME280_pressure;Samples;Min_cycle;Max_cycle;Signal;HPM_P1;HPM_P2
2022/04/21 00:00:04;;;;;;;;;;;;;;;;;;5092902;28;19981;-74
2022/04/21 00:02:30;;;;;;;;;;;;;;;;;;5092982;28;19916;-75
2022/04/21 00:04:56;;;;;;;;;;;;;;;;;;5092170;28;20484;-75
2022/04/21 00:07:22;;;;;;;;;;;;;;;;;;5092347;28;19920;-75
2022/04/21 00:09:48;;;;;;;;;;;;;;;;;;5092873;28;19986;-75
2022/04/21 00:12:13;;;;;;;;;;;;;;;;;;5092987;28;20005;-75
2022/04/21 00:14:39;;;;;;;;;;;;;;;;;;5094344;28;19916;-75
2022/04/21 00:17:04;;;;;;;;;;;;;;;;;;5093797;28;19939;-74
2022/04/21 00:19:29;;;;;;;;;;;;;;;;;;5092631;28;19916;-74
2022/04/21 00:24:38;;;;;;;;;;;;;;;;;;5092650;28;20285;-75
2022/04/21 00:27:03;;;;;;;;;;;;;;;;;;5092550;28;19923;-74
2022/04/21 00:29:29;;;;;;;;;;;;;;;;;;5092332;28;19916;-74
2022/04/21 00:31:55;;;;;;;;;;;;;;;;;;5092059;28;19920;-74
2022/04/21 00:34:20;;;;;;;;;;;;;;;;;;5094543;28;19916;-75
2022/04/21 00:36:45;;;;;;;;;;;;;;;;;;5094416;28;20056;-74
2022/04/21 00:39:11;;;;;;;;;;;;;;;;;;5094706;28;20363;-74
2022/04/21 00:41:36;;;;;;;;;;;;;;;;;;5094641;28;19920;-74
2022/04/21 00:44:01;;;;;;;;;;;;;;;;;;5093821;28;19965;-74
2022/04/21 00:46:27;;;;;;;;;;;;;;;;;;5094314;28;19916;-74
2022/04/21 00:48:52;;;;;;;;;;;;;;;;;;5092997;28;19920;-74
2022/04/21 00:51:18;;;;;;;;;;;;;;;;;;5092138;28;19942;-74
2022/04/21 00:53:44;;;;;;;;;;;;;;;;;;5092223;28;19923;-75
2022/04/21 00:56:09;;;;;;;;;;;;;;;;;;5092151;28;19976;-75
2022/04/21 00:58:36;;;;;;;;;;;;;;;;;;5090711;28;19971;-74
2022/04/21 01:01:02;;;;;;;;;;;;;;;;;;5092440;28;20329;-74
2022/04/21 01:03:27;;;;;;;;;;;;;;;;;;5090960;28;19916;-75
2022/04/21 01:05:53;;;;;;;;;;;;;;;;;;5093332;28;19988;-75
2022/04/21 01:08:18;;;;;;;;;;;;;;;;;;5092637;28;19923;-74
2022/04/21 01:10:44;;;;;;;;;;;;;;;;;;5091833;28;19916;-74
2022/04/21 01:13:10;;;;;;;;;;;;;;;;;;5091758;28;19916;-74
2022/04/21 01:15:36;;;;;;;;;;;;;;;;;;5087400;28;19916;-74
2022/04/21 01:18:03;;;;;;;;;;;;;;;;;;5085886;28;19920;-75
2022/04/21 01:20:28;;;;;;;;;;;;;;;;;;5091867;28;19920;-75
2022/04/21 01:22:54;;;;;;;;;;;;;;;;;;5087030;28;19916;-75
2022/04/21 01:25:20;;;;;;;;;;;;;;;;;;5073873;28;19969;-75
2022/04/21 01:27:46;;;;;;;;;;;;;;;;;;5072488;28;20413;-75
2022/04/21 01:30:12;;;;;;;;;;;;;;;;;;5073950;28;19948;-75
2022/04/21 01:32:40;;;;;;;;;;;;;;;;;;5073747;28;20313;-75
2022/04/21 01:35:06;;;;;;;;;;;;;;;;;;5081288;28;19942;-75
2022/04/21 01:43:00;;;;;;;;;;;;;;;;;;5073782;28;19923;-75
2022/04/21 01:45:26;;;;;;;;;;;;;;;;;;5082368;28;19967;-75
2022/04/21 01:47:51;;;;;;;;;;;;;;;;;;5093698;28;19967;-75
2022/04/21 01:50:16;;;;;;;;;;;;;;;;;;5093102;28;19944;-75
2022/04/21 01:52:42;;;;;;;;;;;;;;;;;;5093506;28;19923;-75
2022/04/21 01:55:07;;;;;;;;;;;;;;;;;;5093763;28;19924;-75
2022/04/21 01:57:33;;;;;;;;;;;;;;;;;;5093505;28;19997;-75
2022/04/21 01:59:59;;;;;;;;;;;;;;;;;;5092354;28;19971;-75
2022/04/21 02:02:24;;;;;;;;;;;;;;;;;;5092916;28;19920;-75
2022/04/21 02:04:49;;;;;;;;;;;;;;;;;;5093720;28;19920;-74
2022/04/21 02:07:15;;;;;;;;;;;;;;;;;;5093242;28;19912;-74
2022/04/21 02:09:40;;;;;;;;;;;;;;;;;;5093225;28;20259;-75
2022/04/21 02:12:06;;;;;;;;;;;;;;;;;;5092252;28;19961;-75
2022/04/21 02:14:32;;;;;;;;;;;;;;;;;;5093386;28;19920;-75
2022/04/21 02:16:57;;;;;;;;;;;;;;;;;;5093733;28;19916;-74
2022/04/21 02:19:22;;;;;;;;;;;;;;;;;;5093509;28;19916;-75
2022/04/21 02:21:48;;;;;;;;;;;;;;;;;;5093584;28;20337;-77
2022/04/21 02:24:13;;;;;;;;;;;;;;;;;;5093433;28;19926;-75
2022/04/21 02:26:38;;;;;;;;;;;;;;;;;;5093455;28;19916;-75
2022/04/21 02:29:03;;;;;;;;;;;;;;;;;;5093397;28;20007;-75
2022/04/21 02:31:29;;;;;;;;;;;;;;;;;;5094044;28;19967;-75
2022/04/21 02:33:54;;;;;;;;;;;;;;;;;;5097295;28;19982;-75
2022/04/21 02:36:19;;;;;;;;;;;;;;;;;;5096920;28;20381;-75
2022/04/21 02:38:44;;;;;;;;;;;;;;;;;;5093845;28;20389;-75
2022/04/21 02:41:10;;;;;;;;;;;;;;;;;;5094611;28;19967;-74
2022/04/21 02:43:35;;;;;;;;;;;;;;;;;;5094557;28;19922;-74
2022/04/21 02:46:01;;;;;;;;;;;;;;;;;;5094535;28;20620;-74
2022/04/21 02:48:27;;;;;;;;;;;;;;;;;;5094628;28;19960;-75
2022/04/21 02:50:52;;;;;;;;;;;;;;;;;;5094482;28;19916;-75
2022/04/21 02:57:19;;;;;;;;;;;;;;;;;;5094374;28;19916;-76
2022/04/21 02:58:49;;;;;;;;;;;;;;;;;;5092996;28;19920;-76
2022/04/21 03:01:15;;;;;;;;;;;;;;;;;;5094322;28;20018;-76
2022/04/21 03:03:40;;;;;;;;;;;;;;;;;;5093396;28;20430;-75
2022/04/21 03:06:05;;;;;;;;;;;;;;;;;;5092954;28;20003;-74
2022/04/21 03:08:31;;;;;;;;;;;;;;;;;;5095563;28;19958;-75
2022/04/21 03:10:56;;;;;;;;;;;;;;;;;;5096278;28;19916;-74
2022/04/21 03:13:22;;;;;;;;;;;;;;;;;;5096576;28;20301;-74
2022/04/21 03:15:48;;;;;;;;;;;;;;;;;;5096433;28;19923;-74
2022/04/21 03:18:13;;;;;;;;;;;;;;;;;;5095869;28;19916;-74
2022/04/21 03:26:06;;;;;;;;;;;;;;;;;;5095969;28;19928;-75
2022/04/21 03:28:31;;;;;;;;;;;;;;;;;;5096160;28;19920;-75
2022/04/21 03:30:57;;;;;;;;;;;;;;;;;;5095324;28;19924;-74
2022/04/21 03:33:23;;;;;;;;;;;;;;;;;;5095135;28;19992;-75
2022/04/21 03:35:48;;;;;;;;;;;;;;;;;;5094815;28;19916;-75
2022/04/21 03:38:14;;;;;;;;;;;;;;;;;;5095917;28;19916;-75
2022/04/21 03:40:40;;;;;;;;;;;;;;;;;;5096047;28;19920;-75
2022/04/21 03:43:07;;;;;;;;;;;;;;;;;;5094944;28;19917;-74
2022/04/21 03:45:33;;;;;;;;;;;;;;;;;;5095880;28;20027;-74
2022/04/21 03:47:59;;;;;;;;;;;;;;;;;;5094602;28;20358;-75
2022/04/21 03:50:25;;;;;;;;;;;;;;;;;;5095654;28;20003;-75
2022/04/21 03:52:50;;;;;;;;;;;;;;;;;;5095777;28;20060;-74
2022/04/21 03:55:15;;;;;;;;;;;;;;;;;;5094591;28;19916;-74
2022/04/21 03:57:40;;;;;;;;;;;;;;;;;;5095552;28;19920;-74
2022/04/21 04:00:06;;;;;;;;;;;;;;;;;;5095532;28;19969;-74
2022/04/21 04:02:36;;;;;;;;;;;;;;;;;;5094524;28;20003;-74
2022/04/21 04:05:02;;;;;;;;;;;;;;;;;;5095356;28;19974;-74
2022/04/21 04:12:55;;;;;;;;;;;;;;;;;;5095351;28;19916;-74
2022/04/21 04:15:21;;;;;;;;;;;;;;;;;;5095240;28;20007;-74
2022/04/21 04:17:47;;;;;;;;;;;;;;;;;;5094959;28;19916;-74
2022/04/21 04:20:12;;;;;;;;;;;;;;;;;;5095184;28;19981;-75
2022/04/21 04:22:40;;;;;;;;;;;;;;;;;;5093990;28;20015;-74
2022/04/21 04:25:08;;;;;;;;;;;;;;;;;;5095191;28;20391;-75
2022/04/21 04:27:35;;;;;;;;;;;;;;;;;;5095036;28;19923;-75
2022/04/21 04:30:01;;;;;;;;;;;;;;;;;;5094671;28;19923;-74
2022/04/21 04:32:26;;;;;;;;;;;;;;;;;;5094314;28;20474;-74
2022/04/21 04:34:51;;;;;;;;;;;;;;;;;;5095097;28;19997;-75
2022/04/21 04:37:16;;;;;;;;;;;;;;;;;;5094894;28;20286;-74
2022/04/21 04:39:43;;;;;;;;;;;;;;;;;;5094997;28;19924;-74
2022/04/21 04:42:17;;;;;;;;;;;;;;;;;;5094931;28;19916;-75
2022/04/21 04:44:45;;;;;;;;;;;;;;;;;;5094633;28;20323;-74
2022/04/21 04:47:11;;;;;;;;;;;;;;;;;;5093678;28;19923;-74
2022/04/21 04:49:36;;;;;;;;;;;;;;;;;;5094446;28;19916;-75
2022/04/21 04:52:01;;;;;;;;;;;;;;;;;;5094614;28;19920;-75
2022/04/21 04:54:29;;;;;;;;;;;;;;;;;;5093145;28;19916;-75
2022/04/21 04:56:55;;;;;;;;;;;;;;;;;;5094212;28;19932;-76
2022/04/21 04:59:20;;;;;;;;;;;;;;;;;;5093306;28;19937;-74
2022/04/21 05:01:46;;;;;;;;;;;;;;;;;;5093972;28;20392;-74
2022/04/21 05:04:15;;;;;;;;;;;;;;;;;;5092417;28;19920;-75
2022/04/21 05:06:48;;;;;;;;;;;;;;;;;;5094130;28;19916;-75
2022/04/21 05:09:14;;;;;;;;;;;;;;;;;;5094380;28;19999;-75
2022/04/21 05:11:41;;;;;;;;;;;;;;;;;;5094318;28;19916;-74
2022/04/21 05:14:07;;;;;;;;;;;;;;;;;;5094177;28;20029;-75
2022/04/21 05:16:33;;;;;;;;;;;;;;;;;;5094068;28;19919;-74
2022/04/21 05:18:58;;;;;;;;;;;;;;;;;;5094096;28;19923;-74
2022/04/21 05:21:24;;;;;;;;;;;;;;;;;;5094064;28;19920;-75
2022/04/21 05:23:54;;;;;;;;;;;;;;;;;;5093899;28;19932;-75
2022/04/21 05:26:20;;;;;;;;;;;;;;;;;;5093986;28;19916;-75
2022/04/21 05:28:45;;;;;;;;;;;;;;;;;;5093980;28;19923;-75
2022/04/21 05:31:11;;;;;;;;;;;;;;;;;;5094059;28;19916;-75
2022/04/21 05:33:37;;;;;;;;;;;;;;;;;;5093319;28;19939;-75
2022/04/21 05:36:03;;;;;;;;;;;;;;;;;;5089247;28;19916;-75
2022/04/21 05:38:29;;;;;;;;;;;;;;;;;;5075337;28;19916;-75
2022/04/21 05:40:54;;;;;;;;;;;;;;;;;;5094202;28;20316;-75
2022/04/21 05:43:20;;;;;;;;;;;;;;;;;;5093919;28;19917;-75
2022/04/21 05:45:46;;;;;;;;;;;;;;;;;;5093873;28;19923;-75
2022/04/21 05:48:15;;;;;;;;;;;;;;;;;;5092515;28;19920;-75
2022/04/21 05:50:42;;;;;;;;;;;;;;;;;;5093639;28;19920;-75
2022/04/21 05:53:08;;;;;;;;;;;;;;;;;;5094078;28;19923;-75
2022/04/21 05:55:35;;;;;;;;;;;;;;;;;;5093708;28;19916;-75
2022/04/21 05:58:00;;;;;;;;;;;;;;;;;;5093605;28;20019;-75
2022/04/21 06:00:26;;;;;;;;;;;;;;;;;;5093602;28;20061;-75
2022/04/21 06:02:51;;;;;;;;;;;;;;;;;;5093524;28;19962;-75
2022/04/21 06:05:16;;;;;;;;;;;;;;;;;;5093208;28;20032;-75
2022/04/21 06:07:42;;;;;;;;;;;;;;;;;;5097047;28;20408;-75
2022/04/21 06:10:07;;;;;;;;;;;;;;;;;;5097533;28;19916;-75
2022/04/21 06:12:33;;;;;;;;;;;;;;;;;;5097697;28;19951;-75
2022/04/21 06:14:58;;;;;;;;;;;;;;;;;;5097205;28;19970;-75
2022/04/21 06:17:24;;;;;;;;;;;;;;;;;;5096073;28;19916;-75
2022/04/21 06:19:49;;;;;;;;;;;;;;;;;;5097513;28;19969;-75
2022/04/21 06:22:15;;;;;;;;;;;;;;;;;;5097235;28;19920;-75
2022/04/21 06:24:40;;;;;;;;;;;;;;;;;;5097117;28;20305;-75
2022/04/21 06:27:06;;;;;;;;;;;;;;;;;;5095932;28;19922;-75
2022/04/21 06:29:31;;;;;;;;;;;;;;;;;;5097484;28;19927;-75
2022/04/21 06:31:57;;;;;;;;;;;;;;;;;;5095999;28;19916;-75
2022/04/21 06:34:25;;;;;;;;;;;;;;;;;;5095957;28;19968;-75
2022/04/21 06:36:50;;;;;;;;;;;;;;;;;;5096293;28;19916;-74
2022/04/21 06:39:16;;;;;;;;;;;;;;;;;;5095866;28;19923;-75
2022/04/21 06:41:41;;;;;;;;;;;;;;;;;;5096963;28;20007;-75
2022/04/21 06:49:34;;;;;;;;;;;;;;;;;;5096981;28;20008;-75
2022/04/21 06:52:00;;;;;;;;;;;;;;;;;;5096920;28;20327;-75
2022/04/21 06:54:25;;;;;;;;;;;;;;;;;;5096503;28;19916;-75
2022/04/21 06:56:50;;;;;;;;;;;;;;;;;;5096674;28;19920;-80
2022/04/21 06:59:16;;;;;;;;;;;;;;;;;;5096924;28;19916;-77
2022/04/21 07:01:41;;;;;;;;;;;;;;;;;;5097474;28;19924;-78
2022/04/21 07:04:07;;;;;;;;;;;;;;;;;;5097811;28;20005;-79
2022/04/21 07:06:32;;;;;;;;;;;;;;;;;;5098160;28;19916;-78
2022/04/21 07:08:58;;;;;;;;;;;;;;;;;;5098220;28;19922;-77
2022/04/21 07:11:23;;;;;;;;;;;;;;;;;;5099540;28;19970;-77
2022/04/21 07:13:48;;;;;;;;;;;;;;;;;;5098690;28;20554;-78
2022/04/21 07:16:14;;;;;;;;;;;;;;;;;;5098158;28;19916;-78
2022/04/21 07:18:39;;;;;;;;;;;;;;;;;;5097759;28;19916;-77
2022/04/21 07:21:07;;;;;;;;;;;;;;;;;;5096505;28;19945;-78
2022/04/21 07:23:34;;;;;;;;;;;;;;;;;;5100002;28;20007;-79
2022/04/21 07:25:59;;;;;;;;;;;;;;;;;;5097719;28;19916;-78
2022/04/21 07:28:24;;;;;;;;;;;;;;;;;;5098244;28;19984;-78
2022/04/21 07:30:50;;;;;;;;;;;;;;;;;;5099620;28;19916;-77
2022/04/21 07:33:16;;;;;;;;;;;;;;;;;;5093342;28;19923;-76
2022/04/21 07:35:42;;;;;;;;;;;;;;;;;;5075674;28;19916;-77
2022/04/21 07:38:07;;;;;;;;;;;;;;;;;;5076094;28;19966;-76
2022/04/21 07:40:32;;;;;;;;;;;;;;;;;;5077131;28;19920;-76
2022/04/21 07:43:02;;;;;;;;;;;;;;;;;;5076070;28;20401;-76
2022/04/21 07:45:27;;;;;;;;;;;;;;;;;;5082357;28;19941;-76
2022/04/21 07:47:53;;;;;;;;;;;;;;;;;;5077653;28;19915;-76
2022/04/21 07:50:18;;;;;;;;;;;;;;;;;;5095705;28;19977;-77
2022/04/21 07:55:27;;;;;;;;;;;;;;;;;;5095177;28;19928;-76
2022/04/21 07:57:53;;;;;;;;;;;;;;;;;;5095040;28;19920;-76
2022/04/21 08:00:19;;;;;;;;;;;;;;;;;;5097231;28;20266;-76
2022/04/21 08:02:45;;;;;;;;;;;;;;;;;;5089548;28;19917;-76
2022/04/21 08:05:12;;;;;;;;;;;;;;;;;;5075509;28;19916;-76
2022/04/21 08:07:37;;;;;;;;;;;;;;;;;;5075178;28;19920;-76
2022/04/21 08:10:04;;;;;;;;;;;;;;;;;;5075268;28;20069;-77
2022/04/21 08:12:35;;;;;;;;;;;;;;;;;;5074710;28;19916;-76
2022/04/21 08:15:01;;;;;;;;;;;;;;;;;;5075605;28;19950;-77
2022/04/21 08:17:26;;;;;;;;;;;;;;;;;;5074733;28;20011;-77
2022/04/21 08:19:51;;;;;;;;;;;;;;;;;;5074779;28;19920;-77
2022/04/21 08:22:17;;;;;;;;;;;;;;;;;;5075337;28;19917;-77
2022/04/21 08:32:54;;;;;;;;;;;;;;;;;;5094864;28;19920;-79
2022/04/21 08:35:20;;;;;;;;;;;;;;;;;;5079978;28;20002;-79
2022/04/21 08:37:46;;;;;;;;;;;;;;;;;;5095911;28;20434;-79
2022/04/21 08:40:11;;;;;;;;;;;;;;;;;;5097379;28;19923;-79
2022/04/21 08:42:40;;;;;;;;;;;;;;;;;;5097494;28;19912;-79
2022/04/21 08:45:09;;;;;;;;;;;;;;;;;;5095587;28;20007;-80
2022/04/21 08:47:35;;;;;;;;;;;;;;;;;;5095269;28;19927;-80
2022/04/21 08:50:05;;;;;;;;;;;;;;;;;;5095000;28;20139;-80
2022/04/21 08:52:31;;;;;;;;;;;;;;;;;;5094860;28;19916;-80
2022/04/21 08:54:56;;;;;;;;;;;;;;;;;;5094926;28;20018;-80
2022/04/21 08:57:22;;;;;;;;;;;;;;;;;;5094213;28;19924;-80
2022/04/21 08:59:47;;;;;;;;;;;;;;;;;;5093714;28;20290;-80
2022/04/21 09:02:12;;;;;;;;;;;;;;;;;;5095888;28;20482;-80
2022/04/21 09:04:37;;;;;;;;;;;;;;;;;;5096360;28;20313;-80
2022/04/21 09:07:17;;;;;;;;;;;;;;;;;;5097036;28;19998;-80
2022/04/21 09:09:59;;;;;;;;;;;;;;;;;;5096491;28;19927;-80
2022/04/21 09:12:24;;;;;;;;;;;;;;;;;;5096275;28;20324;-80
2022/04/21 09:14:49;;;;;;;;;;;;;;;;;;5096486;28;19999;-80
2022/04/21 09:17:15;;;;;;;;;;;;;;;;;;5096356;28;19916;-80
2022/04/21 09:19:54;;;;;;;;;;;;;;;;;;5098097;28;19916;-80
2022/04/21 09:22:19;;;;;;;;;;;;;;;;;;5096137;28;19955;-80
2022/04/21 09:24:44;;;;;;;;;;;;;;;;;;5096663;28;20025;-78
2022/04/21 09:27:10;;;;;;;;;;;;;;;;;;5096766;28;19969;-78
2022/04/21 09:29:37;;;;;;;;;;;;;;;;;;5097145;28;19916;-78
2022/04/21 09:32:03;;;;;;;;;;;;;;;;;;5097235;28;20092;-78
2022/04/21 09:34:29;;;;;;;;;;;;;;;;;;5095728;28;19916;-78
2022/04/21 09:36:57;;;;;;;;;;;;;;;;;;5096233;28;20292;-78
2022/04/21 09:39:23;;;;;;;;;;;;;;;;;;5096925;28;19920;-78
2022/04/21 09:41:53;;;;;;;;;;;;;;;;;;5095671;28;19974;-78
2022/04/21 09:47:02;;;;;;;;;;;;;;;;;;5094966;28;19957;-78
2022/04/21 09:49:38;;;;;;;;;;;;;;;;;;5096561;28;20010;-78
2022/04/21 09:52:04;;;;;;;;;;;;;;;;;;5096414;28;19916;-78
2022/04/21 09:54:29;;;;;;;;;;;;;;;;;;5096742;28;20438;-78
2022/04/21 09:56:55;;;;;;;;;;;;;;;;;;5064738;28;799937;-78
2022/04/21 09:59:21;;;;;;;;;;;;;;;;;;5095880;28;19932;-78
2022/04/21 10:01:46;;;;;;;;;;;;;;;;;;5095989;28;19970;-78
2022/04/21 10:04:12;;;;;;;;;;;;;;;;;;5094353;28;19924;-77
2022/04/21 10:06:38;;;;;;;;;;;;;;;;;;5092983;28;20004;-77
2022/04/21 10:09:03;;;;;;;;;;;;;;;;;;5094764;28;19959;-77
2022/04/21 10:11:29;;;;;;;;;;;;;;;;;;5095176;28;20423;-77
2022/04/21 10:13:55;;;;;;;;;;;;;;;;;;5095623;28;19920;-80
2022/04/21 10:16:21;;;;;;;;;;;;;;;;;;5096403;28;19923;-80
2022/04/21 10:18:50;;;;;;;;;;;;;;;;;;5078465;28;20370;-80
2022/04/21 10:21:27;;;;;;;;;;;;;;;;;;5094734;28;19938;-80
2022/04/21 10:23:53;;;;;;;;;;;;;;;;;;5095161;28;20305;-80
2022/04/21 10:26:38;;;;;;;;;;;;;;;;;;5094793;28;19922;-79
2022/04/21 10:29:10;;;;;;;;;;;;;;;;;;5093318;28;19924;-79
2022/04/21 10:31:43;;;;;;;;;;;;;;;;;;5093241;28;19916;-79
2022/04/21 10:34:08;;;;;;;;;;;;;;;;;;5093860;28;19924;-79
2022/04/21 10:36:47;;;;;;;;;;;;;;;;;;5093892;28;20335;-79
2022/04/21 10:39:18;;;;;;;;;;;;;;;;;;5075922;28;19920;-80
2022/04/21 10:41:44;;;;;;;;;;;;;;;;;;5094008;28;19922;-79
2022/04/21 10:44:13;;;;;;;;;;;;;;;;;;5096068;28;19928;-80
2022/04/21 10:46:38;;;;;;;;;;;;;;;;;;5097447;28;19916;-79
2022/04/21 10:49:03;;;;;;;;;;;;;;;;;;5096806;28;20007;-79
2022/04/21 10:57:12;;;;;;;;;;;;;;;;;;5097302;28;20382;-80
2022/04/21 10:57:33;;;;;;;;;;;;;;;;;;5099627;28;19923;-79
2022/04/21 11:00:05;;;;;;;;;;;;;;;;;;5100293;28;20015;-80
2022/04/21 11:02:39;;;;;;;;;;;;;;;;;;5099787;28;19920;-79
2022/04/21 11:05:27;;;;;;;;;;;;;;;;;;5099799;28;20427;-79
2022/04/21 11:07:56;;;;;;;;;;;;;;;;;;5097955;28;19920;-79
2022/04/21 11:10:37;;;;;;;;;;;;;;;;;;5098548;28;19959;-80
2022/04/21 11:13:03;;;;;;;;;;;;;;;;;;5101066;28;19924;-80
2022/04/21 11:15:28;;;;;;;;;;;;;;;;;;5099281;28;20061;-80
2022/04/21 11:17:58;;;;;;;;;;;;;;;;;;5098987;28;19923;-80
2022/04/21 11:20:25;;;;;;;;;;;;;;;;;;5099462;28;19957;-79
2022/04/21 11:22:51;;;;;;;;;;;;;;;;;;5100106;28;19920;-80
2022/04/21 11:25:16;;;;;;;;;;;;;;;;;;5098402;28;20388;-79
2022/04/21 11:27:42;;;;;;;;;;;;;;;;;;5099040;28;20297;-79
2022/04/21 11:30:09;;;;;;;;;;;;;;;;;;5099494;28;19942;-79
2022/04/21 11:32:35;;;;;;;;;;;;;;;;;;5099034;28;19999;-79
2022/04/21 11:35:02;;;;;;;;;;;;;;;;;;5099077;28;19955;-79
2022/04/21 11:37:43;;;;;;;;;;;;;;;;;;5098230;28;19920;-79
2022/04/21 11:40:23;;;;;;;;;;;;;;;;;;5099584;28;19916;-79
2022/04/21 11:42:49;;;;;;;;;;;;;;;;;;5099318;28;19987;-79
2022/04/21 11:45:21;;;;;;;;;;;;;;;;;;5099251;28;20334;-80
2022/04/21 11:47:46;;;;;;;;;;;;;;;;;;5099604;28;19922;-79
2022/04/21 11:50:17;;;;;;;;;;;;;;;;;;5099609;28;19920;-80
2022/04/21 11:52:43;;;;;;;;;;;;;;;;;;5097320;28;20350;-80
2022/04/21 11:55:08;;;;;;;;;;;;;;;;;;5098876;28;19916;-79
2022/04/21 11:57:40;;;;;;;;;;;;;;;;;;5098426;28;20312;-80
2022/04/21 12:00:06;;;;;;;;;;;;;;;;;;5105742;28;20011;-79
2022/04/21 12:08:02;;;;;;;;;;;;;;;;;;5105991;28;20059;-79
2022/04/21 12:10:27;;;;;;;;;;;;;;;;;;5097312;28;19923;-80
2022/04/21 12:12:52;;;;;;;;;;;;;;;;;;5097867;28;19916;-79
2022/04/21 12:15:31;;;;;;;;;;;;;;;;;;5097190;28;19970;-80
2022/04/21 12:17:59;;;;;;;;;;;;;;;;;;5097292;28;19916;-80
2022/04/21 12:20:25;;;;;;;;;;;;;;;;;;5096313;28;19916;-80
2022/04/21 12:22:50;;;;;;;;;;;;;;;;;;5097610;28;20374;-80
2022/04/21 12:25:16;;;;;;;;;;;;;;;;;;5096253;28;19924;-80
2022/04/21 12:27:42;;;;;;;;;;;;;;;;;;5098407;28;19916;-80
2022/04/21 12:30:08;;;;;;;;;;;;;;;;;;5098971;28;20254;-79
2022/04/21 12:32:35;;;;;;;;;;;;;;;;;;5099099;28;19916;-80
2022/04/21 12:35:06;;;;;;;;;;;;;;;;;;5098974;28;19924;-80
2022/04/21 12:37:33;;;;;;;;;;;;;;;;;;5097995;28;19923;-81
2022/04/21 12:39:59;;;;;;;;;;;;;;;;;;5097616;28;19923;-80
2022/04/21 12:42:25;;;;;;;;;;;;;;;;;;5098226;28;20374;-81
2022/04/21 12:44:51;;;;;;;;;;;;;;;;;;5098444;28;19923;-81
2022/04/21 12:47:19;;;;;;;;;;;;;;;;;;5099194;28;19938;-80
2022/04/21 12:49:54;;;;;;;;;;;;;;;;;;5099514;28;19963;-81
2022/04/21 12:52:55;;;;;;;;;;;;;;;;;;5099116;28;19969;-80
2022/04/21 12:55:21;;;;;;;;;;;;;;;;;;5058338;28;19923;-80
2022/04/21 12:58:05;;;;;;;;;;;;;;;;;;5090718;28;19943;-81
2022/04/21 13:00:32;;;;;;;;;;;;;;;;;;5103059;28;19920;-81
2022/04/21 13:02:57;;;;;;;;;;;;;;;;;;5119506;28;19919;-80
2022/04/21 13:05:23;;;;;;;;;;;;;;;;;;5119243;28;19916;-80
2022/04/21 13:07:48;;;;;;;;;;;;;;;;;;5119273;28;19923;-80
2022/04/21 13:10:13;;;;;;;;;;;;;;;;;;5119110;28;19915;-80
2022/04/21 13:12:38;;;;;;;;;;;;;;;;;;5119270;28;19947;-80
2022/04/21 13:15:04;;;;;;;;;;;;;;;;;;5117713;28;19915;-80
2022/04/21 13:17:30;;;;;;;;;;;;;;;;;;5118471;28;20353;-80
2022/04/21 13:19:55;;;;;;;;;;;;;;;;;;5118516;28;19961;-80
2022/04/21 13:22:20;;;;;;;;;;;;;;;;;;5117834;28;20395;-81
2022/04/21 13:24:46;;;;;;;;;;;;;;;;;;5118992;28;19972;-81
2022/04/21 13:27:11;;;;;;;;;;;;;;;;;;5118265;28;19923;-80
2022/04/21 13:29:36;;;;;;;;;;;;;;;;;;5118915;28;19916;-81
2022/04/21 13:34:46;;;;;;;;;;;;;;;;;;5097620;28;19964;-81
2022/04/21 13:37:11;;;;;;;;;;;;;;;;;;5096852;28;20270;-81
2022/04/21 13:39:38;;;;;;;;;;;;;;;;;;5097528;28;20269;-81
2022/04/21 13:42:04;;;;;;;;;;;;;;;;;;5097685;28;19920;-81
2022/04/21 13:44:29;;;;;;;;;;;;;;;;;;5098129;28;19922;-81
2022/04/21 13:46:55;;;;;;;;;;;;;;;;;;5096651;28;20378;-81
2022/04/21 13:49:20;;;;;;;;;;;;;;;;;;5097961;28;19961;-81
2022/04/21 13:51:46;;;;;;;;;;;;;;;;;;5097818;28;20301;-81
2022/04/21 13:54:13;;;;;;;;;;;;;;;;;;5097429;28;19954;-80
2022/04/21 13:56:38;;;;;;;;;;;;;;;;;;5097837;28;19916;-80
2022/04/21 13:59:04;;;;;;;;;;;;;;;;;;5081667;28;19923;-80
2022/04/21 14:01:30;;;;;;;;;;;;;;;;;;5085069;28;20392;-81
2022/04/21 14:03:56;;;;;;;;;;;;;;;;;;5077650;28;20511;-80
2022/04/21 14:06:21;;;;;;;;;;;;;;;;;;5078830;28;19922;-80
2022/04/21 14:08:47;;;;;;;;;;;;;;;;;;5089495;28;19912;-80
2022/04/21 14:11:13;;;;;;;;;;;;;;;;;;5098067;28;20486;-80
2022/04/21 14:13:38;;;;;;;;;;;;;;;;;;5094615;28;19916;-80
2022/04/21 14:16:05;;;;;;;;;;;;;;;;;;5080903;28;19966;-81
2022/04/21 14:18:30;;;;;;;;;;;;;;;;;;5091540;28;20300;-80
2022/04/21 14:20:55;;;;;;;;;;;;;;;;;;5082536;28;19924;-80
2022/04/21 14:23:24;;;;;;;;;;;;;;;;;;5082541;28;20010;-80
2022/04/21 14:25:52;;;;;;;;;;;;;;;;;;5090313;28;19916;-80
2022/04/21 14:28:18;;;;;;;;;;;;;;;;;;5090225;28;20375;-80
2022/04/21 14:30:43;;;;;;;;;;;;;;;;;;5085063;28;19916;-80
2022/04/21 14:33:09;;;;;;;;;;;;;;;;;;5097354;28;19994;-80
2022/04/21 14:35:35;;;;;;;;;;;;;;;;;;5094577;28;19918;-80
2022/04/21 14:46:13;;;;;;;;;;;;;;;;;;5084301;28;19923;-79
2022/04/21 14:48:39;;;;;;;;;;;;;;;;;;5077068;28;19916;-79
2022/04/21 14:51:05;;;;;;;;;;;;;;;;;;5082076;28;20243;-79
2022/04/21 14:53:31;;;;;;;;;;;;;;;;;;5094671;28;19916;-80
2022/04/21 14:55:56;;;;;;;;;;;;;;;;;;5088662;28;20271;-79
2022/04/21 14:58:22;;;;;;;;;;;;;;;;;;5095674;28;19950;-79
2022/04/21 15:00:47;;;;;;;;;;;;;;;;;;5081578;28;19920;-80
2022/04/21 15:03:13;;;;;;;;;;;;;;;;;;5085947;28;19926;-78
2022/04/21 15:05:38;;;;;;;;;;;;;;;;;;5092049;28;20397;-81
2022/04/21 15:08:05;;;;;;;;;;;;;;;;;;5098315;28;19916;-80
2022/04/21 15:10:33;;;;;;;;;;;;;;;;;;5085399;28;19916;-81
2022/04/21 15:12:58;;;;;;;;;;;;;;;;;;5091514;28;19924;-77
2022/04/21 15:15:23;;;;;;;;;;;;;;;;;;5087210;28;20392;-80
2022/04/21 15:17:49;;;;;;;;;;;;;;;;;;5091613;28;19916;-77
2022/04/21 15:20:14;;;;;;;;;;;;;;;;;;5091505;28;19963;-78
2022/04/21 15:22:39;;;;;;;;;;;;;;;;;;5102321;28;19923;-80
2022/04/21 15:25:08;;;;;;;;;;;;;;;;;;5083555;28;20003;-81
2022/04/21 15:27:34;;;;;;;;;;;;;;;;;;5088429;28;19983;-78
2022/04/21 15:30:00;;;;;;;;;;;;;;;;;;5084504;28;19951;-81
2022/04/21 15:32:26;;;;;;;;;;;;;;;;;;5093866;28;20695;-81
2022/04/21 15:34:51;;;;;;;;;;;;;;;;;;5083281;28;19916;-83
2022/04/21 15:37:17;;;;;;;;;;;;;;;;;;5087922;28;19916;-81
2022/04/21 15:39:43;;;;;;;;;;;;;;;;;;5094406;28;19920;-82
2022/04/21 15:42:09;;;;;;;;;;;;;;;;;;5087199;28;20354;-83
2022/04/21 15:44:35;;;;;;;;;;;;;;;;;;5102880;28;19923;-79
2022/04/21 15:47:00;;;;;;;;;;;;;;;;;;5101815;28;19917;-82
2022/04/21 15:49:26;;;;;;;;;;;;;;;;;;5061718;28;20356;-83
2022/04/21 15:51:51;;;;;;;;;;;;;;;;;;5082558;28;19920;-84
2022/04/21 15:59:44;;;;;;;;;;;;;;;;;;5091120;28;19916;-85
2022/04/21 16:02:10;;;;;;;;;;;;;;;;;;5095039;28;19942;-81
2022/04/21 16:04:35;;;;;;;;;;;;;;;;;;5079945;28;19916;-83
2022/04/21 16:07:02;;;;;;;;;;;;;;;;;;5078400;28;19917;-92
2022/04/21 16:09:28;;;;;;;;;;;;;;;;;;5056516;28;19924;-82
2022/04/21 16:11:53;;;;;;;;;;;;;;;;;;5079993;28;19920;-81
2022/04/21 16:14:20;;;;;;;;;;;;;;;;;;5093552;28;20010;-85
2022/04/21 16:16:46;;;;;;;;;;;;;;;;;;5084430;28;19916;-82
2022/04/21 16:19:12;;;;;;;;;;;;;;;;;;5106150;28;19916;-84
2022/04/21 16:21:38;;;;;;;;;;;;;;;;;;5105427;28;19920;-84
2022/04/21 16:24:04;;;;;;;;;;;;;;;;;;5079511;28;19916;-87
2022/04/21 16:26:30;;;;;;;;;;;;;;;;;;5075937;28;19960;-77
2022/04/21 16:28:55;;;;;;;;;;;;;;;;;;5074261;28;20009;-77
2022/04/21 16:31:20;;;;;;;;;;;;;;;;;;5097923;28;19916;-79
2022/04/21 16:33:46;;;;;;;;;;;;;;;;;;5090181;28;19927;-76
2022/04/21 16:36:11;;;;;;;;;;;;;;;;;;5092610;28;19923;-79
2022/04/21 16:38:36;;;;;;;;;;;;;;;;;;5073824;28;19948;-76
2022/04/21 16:41:01;;;;;;;;;;;;;;;;;;5092772;28;19971;-74
2022/04/21 16:43:27;;;;;;;;;;;;;;;;;;5092144;28;19922;-78
2022/04/21 16:45:52;;;;;;;;;;;;;;;;;;5094491;28;19920;-77
2022/04/21 16:48:17;;;;;;;;;;;;;;;;;;5091510;28;19954;-76
2022/04/21 16:50:43;;;;;;;;;;;;;;;;;;5093150;28;19920;-80
2022/04/21 16:53:10;;;;;;;;;;;;;;;;;;5077305;28;19912;-78
2022/04/21 16:55:35;;;;;;;;;;;;;;;;;;5093114;28;19916;-77
2022/04/21 16:58:01;;;;;;;;;;;;;;;;;;5093820;28;19920;-78
2022/04/21 17:03:11;;;;;;;;;;;;;;;;;;5076355;28;19917;-78
2022/04/21 17:05:36;;;;;;;;;;;;;;;;;;5075742;28;19924;-77
2022/04/21 17:08:02;;;;;;;;;;;;;;;;;;5087407;28;20432;-78
2022/04/21 17:10:27;;;;;;;;;;;;;;;;;;5093762;28;20393;-79
2022/04/21 17:12:53;;;;;;;;;;;;;;;;;;5094480;28;19939;-78
2022/04/21 17:15:19;;;;;;;;;;;;;;;;;;5093353;28;20257;-78
2022/04/21 17:17:44;;;;;;;;;;;;;;;;;;5097283;28;19916;-77
2022/04/21 17:20:10;;;;;;;;;;;;;;;;;;5094014;28;19923;-77
2022/04/21 17:22:35;;;;;;;;;;;;;;;;;;5094673;28;19926;-78
2022/04/21 17:25:00;;;;;;;;;;;;;;;;;;5094300;28;20015;-78
2022/04/21 17:27:26;;;;;;;;;;;;;;;;;;5092434;28;19938;-77
2022/04/21 17:29:51;;;;;;;;;;;;;;;;;;5092802;28;20002;-77
2022/04/21 17:32:18;;;;;;;;;;;;;;;;;;5093643;28;20266;-78
2022/04/21 17:34:44;;;;;;;;;;;;;;;;;;5094029;28;20417;-77
2022/04/21 17:37:09;;;;;;;;;;;;;;;;;;5089467;28;20007;-78
2022/04/21 17:39:35;;;;;;;;;;;;;;;;;;5100532;28;20335;-78
2022/04/21 17:42:01;;;;;;;;;;;;;;;;;;5092631;28;20010;-78
2022/04/21 17:44:27;;;;;;;;;;;;;;;;;;5093454;28;19980;-78
2022/04/21 17:46:52;;;;;;;;;;;;;;;;;;5092979;28;20010;-78
2022/04/21 17:49:17;;;;;;;;;;;;;;;;;;5092615;28;19947;-78